sensor_id;sensor_type;location;lat;lon;timestamp;P1;durP1;ratioP1;P2;durP2;ratioP2
12476;SDS011;6303;51.504;6.300;2022-07-06T00:00:00;2.10;;;1.90;;
12476;SDS011;6303;51.504;6.300;2022-07-06T00:02:30;4.07;;;2.08;;
12476;SDS011;6303;51.504;6.300;2022-07-06T00:04:57;2.15;;;1.95;;
12476;SDS011;6303;51.504;6.300;2022-07-06T00:07:25;2.10;;;2.00;;
12476;SDS011;6303;51.504;6.300;2022-07-06T00:09:52;2.17;;;1.98;;
12476;SDS011;6303;51.504;6.300;2022-07-06T00:12:19;2.35;;;2.00;;
12476;SDS011;6303;51.504;6.300;2022-07-06T00:14:46;1.90;;;1.80;;
12476;SDS011;6303;51.504;6.300;2022-07-06T00:17:13;2.40;;;1.90;;
12476;SDS011;6303;51.504;6.300;2022-07-06T00:19:40;2.28;;;2.08;;
12476;SDS011;6303;51.504;6.300;2022-07-06T00:22:07;2.15;;;2.00;;
12476;SDS011;6303;51.504;6.300;2022-07-06T00:24:36;2.83;;;2.20;;
12476;SDS011;6303;51.504;6.300;2022-07-06T00:27:03;2.05;;;1.90;;
12476;SDS011;6303;51.504;6.300;2022-07-06T00:29:30;2.05;;;1.95;;
12476;SDS011;6303;51.504;6.300;2022-07-06T00:31:57;3.03;;;2.03;;
12476;SDS011;6303;51.504;6.300;2022-07-06T00:34:25;2.35;;;2.00;;
12476;SDS011;6303;51.504;6.300;2022-07-06T00:36:52;2.28;;;1.92;;
12476;SDS011;6303;51.504;6.300;2022-07-06T00:39:19;2.10;;;1.90;;
12476;SDS011;6303;51.504;6.300;2022-07-06T00:41:49;2.65;;;1.90;;
12476;SDS011;6303;51.504;6.300;2022-07-06T00:44:16;2.55;;;2.10;;
12476;SDS011;6303;51.504;6.300;2022-07-06T00:46:44;2.20;;;2.00;;
12476;SDS011;6303;51.504;6.300;2022-07-06T00:49:11;2.10;;;2.00;;
12476;SDS011;6303;51.504;6.300;2022-07-06T00:51:58;2.00;;;1.90;;
12476;SDS011;6303;51.504;6.300;2022-07-06T00:54:26;2.22;;;2.03;;
12476;SDS011;6303;51.504;6.300;2022-07-06T00:56:55;2.00;;;1.90;;
12476;SDS011;6303;51.504;6.300;2022-07-06T00:59:23;2.00;;;1.90;;
12476;SDS011;6303;51.504;6.300;2022-07-06T01:01:50;2.58;;;1.88;;
12476;SDS011;6303;51.504;6.300;2022-07-06T01:04:17;2.25;;;2.05;;
12476;SDS011;6303;51.504;6.300;2022-07-06T01:06:45;3.28;;;2.20;;
12476;SDS011;6303;51.504;6.300;2022-07-06T01:09:12;1.92;;;1.83;;
12476;SDS011;6303;51.504;6.300;2022-07-06T01:11:40;2.30;;;2.20;;
12476;SDS011;6303;51.504;6.300;2022-07-06T01:14:08;2.10;;;2.00;;
12476;SDS011;6303;51.504;6.300;2022-07-06T01:16:35;2.55;;;2.00;;
12476;SDS011;6303;51.504;6.300;2022-07-06T01:19:03;2.75;;;2.10;;
12476;SDS011;6303;51.504;6.300;2022-07-06T01:21:32;1.90;;;1.80;;
12476;SDS011;6303;51.504;6.300;2022-07-06T01:23:59;2.20;;;1.88;;
12476;SDS011;6303;51.504;6.300;2022-07-06T01:26:26;1.77;;;1.75;;
12476;SDS011;6303;51.504;6.300;2022-07-06T01:28:53;2.00;;;1.90;;
12476;SDS011;6303;51.504;6.300;2022-07-06T01:31:21;2.00;;;1.90;;
12476;SDS011;6303;51.504;6.300;2022-07-06T01:33:50;2.10;;;2.00;;
12476;SDS011;6303;51.504;6.300;2022-07-06T01:36:18;1.83;;;1.73;;
12476;SDS011;6303;51.504;6.300;2022-07-06T01:38:47;2.15;;;2.05;;
12476;SDS011;6303;51.504;6.300;2022-07-06T01:41:15;1.90;;;1.70;;
12476;SDS011;6303;51.504;6.300;2022-07-06T01:43:43;1.90;;;1.80;;
12476;SDS011;6303;51.504;6.300;2022-07-06T01:46:10;2.13;;;1.92;;
12476;SDS011;6303;51.504;6.300;2022-07-06T01:48:38;1.90;;;1.80;;
12476;SDS011;6303;51.504;6.300;2022-07-06T01:51:05;2.10;;;2.00;;
12476;SDS011;6303;51.504;6.300;2022-07-06T01:53:34;1.90;;;1.80;;
12476;SDS011;6303;51.504;6.300;2022-07-06T01:56:04;2.00;;;1.90;;
12476;SDS011;6303;51.504;6.300;2022-07-06T01:58:32;1.83;;;1.73;;
12476;SDS011;6303;51.504;6.300;2022-07-06T02:01:00;2.00;;;1.80;;
12476;SDS011;6303;51.504;6.300;2022-07-06T02:03:32;1.88;;;1.77;;
12476;SDS011;6303;51.504;6.300;2022-07-06T02:05:59;1.80;;;1.70;;
12476;SDS011;6303;51.504;6.300;2022-07-06T02:08:26;1.70;;;1.60;;
12476;SDS011;6303;51.504;6.300;2022-07-06T02:10:54;1.88;;;1.77;;
12476;SDS011;6303;51.504;6.300;2022-07-06T02:13:23;1.83;;;1.73;;
12476;SDS011;6303;51.504;6.300;2022-07-06T02:15:50;2.10;;;1.90;;
12476;SDS011;6303;51.504;6.300;2022-07-06T02:18:17;1.77;;;1.67;;
12476;SDS011;6303;51.504;6.300;2022-07-06T02:20:44;1.80;;;1.70;;
12476;SDS011;6303;51.504;6.300;2022-07-06T02:23:12;2.00;;;1.90;;
12476;SDS011;6303;51.504;6.300;2022-07-06T02:25:40;1.77;;;1.67;;
12476;SDS011;6303;51.504;6.300;2022-07-06T02:28:07;2.00;;;1.90;;
12476;SDS011;6303;51.504;6.300;2022-07-06T02:30:35;1.90;;;1.80;;
12476;SDS011;6303;51.504;6.300;2022-07-06T02:33:03;1.90;;;1.80;;
12476;SDS011;6303;51.504;6.300;2022-07-06T02:35:31;1.80;;;1.70;;
12476;SDS011;6303;51.504;6.300;2022-07-06T02:37:59;1.80;;;1.70;;
12476;SDS011;6303;51.504;6.300;2022-07-06T02:40:26;1.92;;;1.83;;
12476;SDS011;6303;51.504;6.300;2022-07-06T02:42:53;1.85;;;1.75;;
12476;SDS011;6303;51.504;6.300;2022-07-06T02:45:21;2.38;;;1.77;;
12476;SDS011;6303;51.504;6.300;2022-07-06T02:47:49;1.88;;;1.77;;
12476;SDS011;6303;51.504;6.300;2022-07-06T02:50:18;2.03;;;1.83;;
12476;SDS011;6303;51.504;6.300;2022-07-06T02:52:46;1.90;;;1.80;;
12476;SDS011;6303;51.504;6.300;2022-07-06T02:55:13;1.90;;;1.80;;
12476;SDS011;6303;51.504;6.300;2022-07-06T02:57:41;1.85;;;1.75;;
12476;SDS011;6303;51.504;6.300;2022-07-06T03:00:10;1.90;;;1.80;;
12476;SDS011;6303;51.504;6.300;2022-07-06T03:02:38;2.10;;;2.00;;
12476;SDS011;6303;51.504;6.300;2022-07-06T03:05:08;1.88;;;1.77;;
12476;SDS011;6303;51.504;6.300;2022-07-06T03:07:36;1.88;;;1.77;;
12476;SDS011;6303;51.504;6.300;2022-07-06T03:10:04;2.80;;;1.98;;
12476;SDS011;6303;51.504;6.300;2022-07-06T03:12:32;1.80;;;1.70;;
12476;SDS011;6303;51.504;6.300;2022-07-06T03:15:00;1.90;;;1.80;;
12476;SDS011;6303;51.504;6.300;2022-07-06T03:17:29;2.00;;;1.90;;
12476;SDS011;6303;51.504;6.300;2022-07-06T03:19:56;1.98;;;1.80;;
12476;SDS011;6303;51.504;6.300;2022-07-06T03:22:25;1.85;;;1.70;;
12476;SDS011;6303;51.504;6.300;2022-07-06T03:24:53;2.17;;;1.90;;
12476;SDS011;6303;51.504;6.300;2022-07-06T03:27:20;2.00;;;1.90;;
12476;SDS011;6303;51.504;6.300;2022-07-06T03:29:47;1.90;;;1.80;;
12476;SDS011;6303;51.504;6.300;2022-07-06T03:32:15;2.05;;;1.95;;
12476;SDS011;6303;51.504;6.300;2022-07-06T03:34:42;2.20;;;1.90;;
12476;SDS011;6303;51.504;6.300;2022-07-06T03:37:10;1.80;;;1.70;;
12476;SDS011;6303;51.504;6.300;2022-07-06T03:39:40;1.92;;;1.83;;
12476;SDS011;6303;51.504;6.300;2022-07-06T03:42:09;2.10;;;1.73;;
12476;SDS011;6303;51.504;6.300;2022-07-06T03:44:37;1.95;;;1.80;;
12476;SDS011;6303;51.504;6.300;2022-07-06T03:47:04;1.85;;;1.75;;
12476;SDS011;6303;51.504;6.300;2022-07-06T03:49:31;1.92;;;1.83;;
12476;SDS011;6303;51.504;6.300;2022-07-06T03:52:00;1.90;;;1.80;;
12476;SDS011;6303;51.504;6.300;2022-07-06T03:54:33;1.90;;;1.80;;
12476;SDS011;6303;51.504;6.300;2022-07-06T03:57:05;2.13;;;2.00;;
12476;SDS011;6303;51.504;6.300;2022-07-06T03:59:33;1.80;;;1.70;;
12476;SDS011;6303;51.504;6.300;2022-07-06T04:02:00;2.70;;;2.15;;
12476;SDS011;6303;51.504;6.300;2022-07-06T04:04:28;3.10;;;2.10;;
12476;SDS011;6303;51.504;6.300;2022-07-06T04:06:56;3.20;;;2.00;;
12476;SDS011;6303;51.504;6.300;2022-07-06T04:09:24;1.90;;;1.80;;
12476;SDS011;6303;51.504;6.300;2022-07-06T04:11:52;2.00;;;1.80;;
12476;SDS011;6303;51.504;6.300;2022-07-06T04:14:21;1.80;;;1.70;;
12476;SDS011;6303;51.504;6.300;2022-07-06T04:16:48;1.98;;;1.70;;
12476;SDS011;6303;51.504;6.300;2022-07-06T04:19:15;1.83;;;1.73;;
12476;SDS011;6303;51.504;6.300;2022-07-06T04:21:42;2.03;;;1.85;;
12476;SDS011;6303;51.504;6.300;2022-07-06T04:24:09;1.90;;;1.80;;
12476;SDS011;6303;51.504;6.300;2022-07-06T04:26:37;2.20;;;2.00;;
12476;SDS011;6303;51.504;6.300;2022-07-06T04:29:04;2.03;;;1.88;;
12476;SDS011;6303;51.504;6.300;2022-07-06T04:31:33;2.30;;;2.00;;
12476;SDS011;6303;51.504;6.300;2022-07-06T04:34:01;2.00;;;1.90;;
12476;SDS011;6303;51.504;6.300;2022-07-06T04:36:28;2.20;;;2.00;;
12476;SDS011;6303;51.504;6.300;2022-07-06T04:38:57;2.28;;;2.00;;
12476;SDS011;6303;51.504;6.300;2022-07-06T04:41:24;1.83;;;1.73;;
12476;SDS011;6303;51.504;6.300;2022-07-06T04:43:52;1.90;;;1.80;;
12476;SDS011;6303;51.504;6.300;2022-07-06T04:46:21;2.00;;;1.80;;
12476;SDS011;6303;51.504;6.300;2022-07-06T04:48:52;1.90;;;1.80;;
12476;SDS011;6303;51.504;6.300;2022-07-06T04:51:24;2.88;;;1.80;;
12476;SDS011;6303;51.504;6.300;2022-07-06T04:53:52;5.63;;;1.98;;
12476;SDS011;6303;51.504;6.300;2022-07-06T04:56:20;4.53;;;2.45;;
12476;SDS011;6303;51.504;6.300;2022-07-06T04:58:48;4.50;;;2.10;;
12476;SDS011;6303;51.504;6.300;2022-07-06T05:01:18;5.40;;;2.60;;
12476;SDS011;6303;51.504;6.300;2022-07-06T05:03:46;15.02;;;4.60;;
12476;SDS011;6303;51.504;6.300;2022-07-06T05:06:15;35.60;;;9.80;;
12476;SDS011;6303;51.504;6.300;2022-07-06T05:08:44;45.70;;;10.13;;
12476;SDS011;6303;51.504;6.300;2022-07-06T05:11:11;52.83;;;12.15;;
12476;SDS011;6303;51.504;6.300;2022-07-06T05:13:40;48.75;;;11.80;;
12476;SDS011;6303;51.504;6.300;2022-07-06T05:16:07;33.90;;;9.85;;
12476;SDS011;6303;51.504;6.300;2022-07-06T05:18:35;20.45;;;6.60;;
12476;SDS011;6303;51.504;6.300;2022-07-06T05:21:04;25.60;;;7.15;;
12476;SDS011;6303;51.504;6.300;2022-07-06T05:23:33;16.30;;;5.75;;
12476;SDS011;6303;51.504;6.300;2022-07-06T05:26:01;13.55;;;5.00;;
12476;SDS011;6303;51.504;6.300;2022-07-06T05:28:29;13.90;;;4.93;;
12476;SDS011;6303;51.504;6.300;2022-07-06T05:30:57;13.57;;;4.65;;
12476;SDS011;6303;51.504;6.300;2022-07-06T05:33:24;8.57;;;3.90;;
12476;SDS011;6303;51.504;6.300;2022-07-06T05:35:51;8.82;;;3.55;;
12476;SDS011;6303;51.504;6.300;2022-07-06T05:38:23;8.88;;;3.60;;
12476;SDS011;6303;51.504;6.300;2022-07-06T05:40:52;8.38;;;3.65;;
12476;SDS011;6303;51.504;6.300;2022-07-06T05:43:20;6.13;;;3.30;;
12476;SDS011;6303;51.504;6.300;2022-07-06T05:45:48;5.90;;;3.42;;
12476;SDS011;6303;51.504;6.300;2022-07-06T05:48:17;6.68;;;3.35;;
12476;SDS011;6303;51.504;6.300;2022-07-06T05:51:02;7.20;;;3.38;;
12476;SDS011;6303;51.504;6.300;2022-07-06T05:53:30;5.60;;;2.80;;
12476;SDS011;6303;51.504;6.300;2022-07-06T05:55:59;4.72;;;2.85;;
12476;SDS011;6303;51.504;6.300;2022-07-06T05:58:29;4.53;;;2.80;;
12476;SDS011;6303;51.504;6.300;2022-07-06T06:00:58;3.53;;;2.67;;
12476;SDS011;6303;51.504;6.300;2022-07-06T06:03:25;2.47;;;2.20;;
12476;SDS011;6303;51.504;6.300;2022-07-06T06:05:52;2.60;;;2.40;;
12476;SDS011;6303;51.504;6.300;2022-07-06T06:08:21;3.08;;;2.22;;
12476;SDS011;6303;51.504;6.300;2022-07-06T06:10:50;3.13;;;2.40;;
12476;SDS011;6303;51.504;6.300;2022-07-06T06:13:21;3.42;;;2.13;;
12476;SDS011;6303;51.504;6.300;2022-07-06T06:15:51;4.25;;;2.20;;
12476;SDS011;6303;51.504;6.300;2022-07-06T06:18:18;3.00;;;2.35;;
12476;SDS011;6303;51.504;6.300;2022-07-06T06:20:45;3.90;;;2.53;;
12476;SDS011;6303;51.504;6.300;2022-07-06T06:23:12;2.80;;;2.30;;
12476;SDS011;6303;51.504;6.300;2022-07-06T06:25:40;4.68;;;2.47;;
12476;SDS011;6303;51.504;6.300;2022-07-06T06:28:07;5.18;;;2.40;;
12476;SDS011;6303;51.504;6.300;2022-07-06T06:30:37;2.90;;;2.30;;
12476;SDS011;6303;51.504;6.300;2022-07-06T06:33:05;2.35;;;2.10;;
12476;SDS011;6303;51.504;6.300;2022-07-06T06:35:33;3.00;;;2.30;;
12476;SDS011;6303;51.504;6.300;2022-07-06T06:38:00;3.15;;;2.22;;
12476;SDS011;6303;51.504;6.300;2022-07-06T06:40:27;3.05;;;2.50;;
12476;SDS011;6303;51.504;6.300;2022-07-06T06:42:55;3.92;;;2.45;;
12476;SDS011;6303;51.504;6.300;2022-07-06T06:45:22;2.85;;;2.65;;
12476;SDS011;6303;51.504;6.300;2022-07-06T06:47:51;4.70;;;2.53;;
12476;SDS011;6303;51.504;6.300;2022-07-06T06:50:19;3.00;;;2.50;;
12476;SDS011;6303;51.504;6.300;2022-07-06T06:52:48;2.72;;;2.50;;
12476;SDS011;6303;51.504;6.300;2022-07-06T06:55:15;2.75;;;2.50;;
12476;SDS011;6303;51.504;6.300;2022-07-06T06:57:42;2.47;;;2.20;;
12476;SDS011;6303;51.504;6.300;2022-07-06T07:00:09;2.67;;;1.88;;
12476;SDS011;6303;51.504;6.300;2022-07-06T07:02:37;2.20;;;1.90;;
12476;SDS011;6303;51.504;6.300;2022-07-06T07:05:06;2.97;;;2.00;;
12476;SDS011;6303;51.504;6.300;2022-07-06T07:07:34;1.75;;;1.65;;
12476;SDS011;6303;51.504;6.300;2022-07-06T07:10:02;1.80;;;1.70;;
12476;SDS011;6303;51.504;6.300;2022-07-06T07:12:30;1.77;;;1.67;;
12476;SDS011;6303;51.504;6.300;2022-07-06T07:14:58;2.35;;;1.70;;
12476;SDS011;6303;51.504;6.300;2022-07-06T07:17:25;2.75;;;1.90;;
12476;SDS011;6303;51.504;6.300;2022-07-06T07:19:52;1.63;;;1.52;;
12476;SDS011;6303;51.504;6.300;2022-07-06T07:22:22;1.55;;;1.45;;
12476;SDS011;6303;51.504;6.300;2022-07-06T07:24:50;1.80;;;1.60;;
12476;SDS011;6303;51.504;6.300;2022-07-06T07:27:17;2.70;;;2.60;;
12476;SDS011;6303;51.504;6.300;2022-07-06T07:29:44;2.00;;;1.80;;
12476;SDS011;6303;51.504;6.300;2022-07-06T07:32:12;3.63;;;1.70;;
12476;SDS011;6303;51.504;6.300;2022-07-06T07:34:39;2.88;;;1.80;;
12476;SDS011;6303;51.504;6.300;2022-07-06T07:37:06;2.35;;;2.25;;
12476;SDS011;6303;51.504;6.300;2022-07-06T07:39:34;2.45;;;2.35;;
12476;SDS011;6303;51.504;6.300;2022-07-06T07:42:01;1.85;;;1.75;;
12476;SDS011;6303;51.504;6.300;2022-07-06T07:44:29;2.22;;;1.70;;
12476;SDS011;6303;51.504;6.300;2022-07-06T07:46:56;1.67;;;1.63;;
12476;SDS011;6303;51.504;6.300;2022-07-06T07:49:23;3.08;;;1.88;;
12476;SDS011;6303;51.504;6.300;2022-07-06T07:51:50;3.08;;;1.70;;
12476;SDS011;6303;51.504;6.300;2022-07-06T07:54:17;1.55;;;1.45;;
12476;SDS011;6303;51.504;6.300;2022-07-06T07:56:46;2.05;;;1.73;;
12476;SDS011;6303;51.504;6.300;2022-07-06T07:59:13;1.60;;;1.50;;
12476;SDS011;6303;51.504;6.300;2022-07-06T08:01:41;2.33;;;1.65;;
12476;SDS011;6303;51.504;6.300;2022-07-06T08:04:08;1.83;;;1.70;;
12476;SDS011;6303;51.504;6.300;2022-07-06T08:06:35;1.77;;;1.67;;
12476;SDS011;6303;51.504;6.300;2022-07-06T08:09:02;1.83;;;1.60;;
12476;SDS011;6303;51.504;6.300;2022-07-06T08:11:30;1.90;;;1.80;;
12476;SDS011;6303;51.504;6.300;2022-07-06T08:13:58;1.70;;;1.60;;
12476;SDS011;6303;51.504;6.300;2022-07-06T08:16:26;1.75;;;1.65;;
12476;SDS011;6303;51.504;6.300;2022-07-06T08:18:53;2.92;;;1.50;;
12476;SDS011;6303;51.504;6.300;2022-07-06T08:21:20;2.05;;;1.55;;
12476;SDS011;6303;51.504;6.300;2022-07-06T08:23:47;1.90;;;1.60;;
12476;SDS011;6303;51.504;6.300;2022-07-06T08:26:14;1.90;;;1.80;;
12476;SDS011;6303;51.504;6.300;2022-07-06T08:28:41;2.42;;;1.70;;
12476;SDS011;6303;51.504;6.300;2022-07-06T08:31:10;1.67;;;1.65;;
12476;SDS011;6303;51.504;6.300;2022-07-06T08:33:37;1.70;;;1.63;;
12476;SDS011;6303;51.504;6.300;2022-07-06T08:36:04;3.53;;;2.17;;
12476;SDS011;6303;51.504;6.300;2022-07-06T08:38:32;2.53;;;1.90;;
12476;SDS011;6303;51.504;6.300;2022-07-06T08:40:59;2.85;;;1.95;;
12476;SDS011;6303;51.504;6.300;2022-07-06T08:43:26;2.08;;;1.90;;
12476;SDS011;6303;51.504;6.300;2022-07-06T08:45:53;2.22;;;2.08;;
12476;SDS011;6303;51.504;6.300;2022-07-06T08:48:23;2.80;;;2.00;;
12476;SDS011;6303;51.504;6.300;2022-07-06T08:50:51;2.40;;;2.20;;
12476;SDS011;6303;51.504;6.300;2022-07-06T08:53:19;3.00;;;2.30;;
12476;SDS011;6303;51.504;6.300;2022-07-06T08:55:47;3.33;;;2.08;;
12476;SDS011;6303;51.504;6.300;2022-07-06T08:58:15;2.38;;;2.15;;
12476;SDS011;6303;51.504;6.300;2022-07-06T09:00:42;2.08;;;1.90;;
12476;SDS011;6303;51.504;6.300;2022-07-06T09:03:11;2.00;;;1.90;;
12476;SDS011;6303;51.504;6.300;2022-07-06T09:05:40;2.35;;;2.03;;
12476;SDS011;6303;51.504;6.300;2022-07-06T09:08:12;3.20;;;2.25;;
12476;SDS011;6303;51.504;6.300;2022-07-06T09:10:39;3.08;;;1.80;;
12476;SDS011;6303;51.504;6.300;2022-07-06T09:13:07;1.90;;;1.80;;
12476;SDS011;6303;51.504;6.300;2022-07-06T09:15:35;1.90;;;1.80;;
12476;SDS011;6303;51.504;6.300;2022-07-06T09:18:04;4.03;;;1.90;;
12476;SDS011;6303;51.504;6.300;2022-07-06T09:20:31;1.90;;;1.80;;
12476;SDS011;6303;51.504;6.300;2022-07-06T09:23:00;2.75;;;1.77;;
12476;SDS011;6303;51.504;6.300;2022-07-06T09:25:29;2.38;;;1.77;;
12476;SDS011;6303;51.504;6.300;2022-07-06T09:27:56;1.83;;;1.67;;
12476;SDS011;6303;51.504;6.300;2022-07-06T09:30:24;1.70;;;1.60;;
12476;SDS011;6303;51.504;6.300;2022-07-06T09:32:54;1.80;;;1.70;;
12476;SDS011;6303;51.504;6.300;2022-07-06T09:35:23;2.85;;;1.80;;
12476;SDS011;6303;51.504;6.300;2022-07-06T09:38:02;1.90;;;1.70;;
12476;SDS011;6303;51.504;6.300;2022-07-06T09:40:31;1.70;;;1.60;;
12476;SDS011;6303;51.504;6.300;2022-07-06T09:43:07;2.10;;;1.70;;
12476;SDS011;6303;51.504;6.300;2022-07-06T09:45:37;2.55;;;1.70;;
12476;SDS011;6303;51.504;6.300;2022-07-06T09:48:05;1.67;;;1.58;;
12476;SDS011;6303;51.504;6.300;2022-07-06T09:50:41;3.80;;;1.65;;
12476;SDS011;6303;51.504;6.300;2022-07-06T09:53:11;1.70;;;1.60;;
12476;SDS011;6303;51.504;6.300;2022-07-06T09:55:42;3.53;;;1.52;;
12476;SDS011;6303;51.504;6.300;2022-07-06T09:58:11;1.60;;;1.50;;
12476;SDS011;6303;51.504;6.300;2022-07-06T10:00:38;2.88;;;1.70;;
12476;SDS011;6303;51.504;6.300;2022-07-06T10:03:05;5.38;;;2.05;;
12476;SDS011;6303;51.504;6.300;2022-07-06T10:05:33;7.30;;;2.05;;
12476;SDS011;6303;51.504;6.300;2022-07-06T10:08:03;4.60;;;1.92;;
12476;SDS011;6303;51.504;6.300;2022-07-06T10:10:32;4.10;;;1.90;;
12476;SDS011;6303;51.504;6.300;2022-07-06T10:13:00;4.57;;;1.80;;
12476;SDS011;6303;51.504;6.300;2022-07-06T10:15:31;8.02;;;2.08;;
12476;SDS011;6303;51.504;6.300;2022-07-06T10:18:00;6.63;;;2.13;;
12476;SDS011;6303;51.504;6.300;2022-07-06T10:20:29;6.57;;;1.70;;
12476;SDS011;6303;51.504;6.300;2022-07-06T10:22:58;1.75;;;1.65;;
12476;SDS011;6303;51.504;6.300;2022-07-06T10:25:26;3.58;;;2.00;;
12476;SDS011;6303;51.504;6.300;2022-07-06T10:27:55;4.13;;;1.80;;
12476;SDS011;6303;51.504;6.300;2022-07-06T10:30:22;2.58;;;1.63;;
12476;SDS011;6303;51.504;6.300;2022-07-06T10:32:51;2.70;;;1.75;;
12476;SDS011;6303;51.504;6.300;2022-07-06T10:35:20;2.45;;;1.70;;
12476;SDS011;6303;51.504;6.300;2022-07-06T10:38:02;1.67;;;1.58;;
12476;SDS011;6303;51.504;6.300;2022-07-06T10:40:31;2.95;;;1.60;;
12476;SDS011;6303;51.504;6.300;2022-07-06T10:43:18;2.53;;;1.70;;
12476;SDS011;6303;51.504;6.300;2022-07-06T10:45:51;2.05;;;1.70;;
12476;SDS011;6303;51.504;6.300;2022-07-06T10:48:21;1.70;;;1.60;;
12476;SDS011;6303;51.504;6.300;2022-07-06T10:50:49;1.70;;;1.60;;
12476;SDS011;6303;51.504;6.300;2022-07-06T10:53:21;1.95;;;1.70;;
12476;SDS011;6303;51.504;6.300;2022-07-06T10:55:50;1.60;;;1.50;;
12476;SDS011;6303;51.504;6.300;2022-07-06T11:01:03;1.90;;;1.70;;
12476;SDS011;6303;51.504;6.300;2022-07-06T11:03:34;2.75;;;1.95;;
12476;SDS011;6303;51.504;6.300;2022-07-06T11:06:05;1.73;;;1.63;;
12476;SDS011;6303;51.504;6.300;2022-07-06T11:08:40;1.70;;;1.60;;
12476;SDS011;6303;51.504;6.300;2022-07-06T11:11:18;1.90;;;1.80;;
12476;SDS011;6303;51.504;6.300;2022-07-06T11:13:52;2.55;;;1.70;;
12476;SDS011;6303;51.504;6.300;2022-07-06T11:16:22;1.70;;;1.60;;
12476;SDS011;6303;51.504;6.300;2022-07-06T11:18:59;2.25;;;1.67;;
12476;SDS011;6303;51.504;6.300;2022-07-06T11:24:14;1.60;;;1.50;;
12476;SDS011;6303;51.504;6.300;2022-07-06T11:26:43;1.60;;;1.50;;
12476;SDS011;6303;51.504;6.300;2022-07-06T11:29:13;1.67;;;1.58;;
12476;SDS011;6303;51.504;6.300;2022-07-06T11:31:42;1.70;;;1.60;;
12476;SDS011;6303;51.504;6.300;2022-07-06T11:34:12;1.65;;;1.60;;
12476;SDS011;6303;51.504;6.300;2022-07-06T11:36:43;2.60;;;1.90;;
12476;SDS011;6303;51.504;6.300;2022-07-06T11:39:10;6.32;;;1.98;;
12476;SDS011;6303;51.504;6.300;2022-07-06T11:41:37;4.95;;;1.90;;
12476;SDS011;6303;51.504;6.300;2022-07-06T11:44:04;4.32;;;1.75;;
12476;SDS011;6303;51.504;6.300;2022-07-06T11:46:33;2.03;;;1.83;;
12476;SDS011;6303;51.504;6.300;2022-07-06T11:49:03;1.70;;;1.60;;
12476;SDS011;6303;51.504;6.300;2022-07-06T11:51:31;3.05;;;1.92;;
12476;SDS011;6303;51.504;6.300;2022-07-06T11:54:00;3.08;;;1.80;;
12476;SDS011;6303;51.504;6.300;2022-07-06T11:56:28;3.50;;;1.80;;
12476;SDS011;6303;51.504;6.300;2022-07-06T11:58:56;6.50;;;1.70;;
12476;SDS011;6303;51.504;6.300;2022-07-06T12:01:25;4.97;;;1.90;;
12476;SDS011;6303;51.504;6.300;2022-07-06T12:03:58;2.67;;;1.60;;
12476;SDS011;6303;51.504;6.300;2022-07-06T12:06:27;3.00;;;1.77;;
12476;SDS011;6303;51.504;6.300;2022-07-06T12:08:57;8.15;;;1.80;;
12476;SDS011;6303;51.504;6.300;2022-07-06T12:11:29;1.92;;;1.83;;
12476;SDS011;6303;51.504;6.300;2022-07-06T12:13:58;1.48;;;1.40;;
12476;SDS011;6303;51.504;6.300;2022-07-06T12:16:31;2.50;;;1.83;;
12476;SDS011;6303;51.504;6.300;2022-07-06T12:19:01;1.55;;;1.40;;
12476;SDS011;6303;51.504;6.300;2022-07-06T12:21:30;1.58;;;1.48;;
12476;SDS011;6303;51.504;6.300;2022-07-06T12:23:58;1.73;;;1.60;;
12476;SDS011;6303;51.504;6.300;2022-07-06T12:26:26;2.35;;;1.55;;
12476;SDS011;6303;51.504;6.300;2022-07-06T12:29:02;2.75;;;1.50;;
12476;SDS011;6303;51.504;6.300;2022-07-06T12:31:31;1.88;;;1.77;;
12476;SDS011;6303;51.504;6.300;2022-07-06T12:34:01;1.67;;;1.48;;
12476;SDS011;6303;51.504;6.300;2022-07-06T12:36:29;1.60;;;1.50;;
12476;SDS011;6303;51.504;6.300;2022-07-06T12:38:57;2.10;;;1.50;;
12476;SDS011;6303;51.504;6.300;2022-07-06T12:41:33;1.77;;;1.60;;
12476;SDS011;6303;51.504;6.300;2022-07-06T12:44:02;1.70;;;1.50;;
12476;SDS011;6303;51.504;6.300;2022-07-06T12:46:31;1.73;;;1.63;;
12476;SDS011;6303;51.504;6.300;2022-07-06T12:49:01;1.40;;;1.40;;
12476;SDS011;6303;51.504;6.300;2022-07-06T12:54:16;1.70;;;1.60;;
12476;SDS011;6303;51.504;6.300;2022-07-06T12:59:43;1.65;;;1.65;;
12476;SDS011;6303;51.504;6.300;2022-07-06T13:02:19;1.73;;;1.63;;
12476;SDS011;6303;51.504;6.300;2022-07-06T13:04:55;1.60;;;1.50;;
12476;SDS011;6303;51.504;6.300;2022-07-06T13:07:23;1.80;;;1.70;;
12476;SDS011;6303;51.504;6.300;2022-07-06T13:09:51;1.80;;;1.70;;
12476;SDS011;6303;51.504;6.300;2022-07-06T13:12:19;1.83;;;1.73;;
12476;SDS011;6303;51.504;6.300;2022-07-06T13:14:46;1.70;;;1.60;;
12476;SDS011;6303;51.504;6.300;2022-07-06T13:17:14;1.85;;;1.75;;
12476;SDS011;6303;51.504;6.300;2022-07-06T13:19:41;1.75;;;1.65;;
12476;SDS011;6303;51.504;6.300;2022-07-06T13:22:10;1.73;;;1.63;;
12476;SDS011;6303;51.504;6.300;2022-07-06T13:24:37;1.83;;;1.73;;
12476;SDS011;6303;51.504;6.300;2022-07-06T13:27:05;1.70;;;1.60;;
12476;SDS011;6303;51.504;6.300;2022-07-06T13:29:32;1.80;;;1.70;;
12476;SDS011;6303;51.504;6.300;2022-07-06T13:31:59;1.75;;;1.73;;
12476;SDS011;6303;51.504;6.300;2022-07-06T13:34:26;2.03;;;1.83;;
12476;SDS011;6303;51.504;6.300;2022-07-06T13:36:53;2.10;;;1.90;;
12476;SDS011;6303;51.504;6.300;2022-07-06T13:39:22;1.63;;;1.52;;
12476;SDS011;6303;51.504;6.300;2022-07-06T13:41:52;1.60;;;1.50;;
12476;SDS011;6303;51.504;6.300;2022-07-06T13:44:21;1.73;;;1.67;;
12476;SDS011;6303;51.504;6.300;2022-07-06T13:46:48;1.75;;;1.65;;
12476;SDS011;6303;51.504;6.300;2022-07-06T13:49:16;2.55;;;1.70;;
12476;SDS011;6303;51.504;6.300;2022-07-06T13:51:43;2.95;;;1.60;;
12476;SDS011;6303;51.504;6.300;2022-07-06T13:54:11;1.60;;;1.50;;
12476;SDS011;6303;51.504;6.300;2022-07-06T13:56:39;1.63;;;1.52;;
12476;SDS011;6303;51.504;6.300;2022-07-06T13:59:06;1.70;;;1.60;;
12476;SDS011;6303;51.504;6.300;2022-07-06T14:01:34;1.67;;;1.60;;
12476;SDS011;6303;51.504;6.300;2022-07-06T14:04:01;1.70;;;1.60;;
12476;SDS011;6303;51.504;6.300;2022-07-06T14:06:28;1.98;;;1.70;;
12476;SDS011;6303;51.504;6.300;2022-07-06T14:08:55;2.08;;;1.67;;
12476;SDS011;6303;51.504;6.300;2022-07-06T14:11:22;1.65;;;1.65;;
12476;SDS011;6303;51.504;6.300;2022-07-06T14:13:52;1.88;;;1.65;;
12476;SDS011;6303;51.504;6.300;2022-07-06T14:16:19;1.80;;;1.60;;
12476;SDS011;6303;51.504;6.300;2022-07-06T14:18:46;1.80;;;1.70;;
12476;SDS011;6303;51.504;6.300;2022-07-06T14:21:14;5.15;;;1.90;;
12476;SDS011;6303;51.504;6.300;2022-07-06T14:23:41;2.67;;;1.88;;
12476;SDS011;6303;51.504;6.300;2022-07-06T14:26:08;1.80;;;1.70;;
12476;SDS011;6303;51.504;6.300;2022-07-06T14:28:36;1.88;;;1.77;;
12476;SDS011;6303;51.504;6.300;2022-07-06T14:31:04;2.03;;;1.92;;
12476;SDS011;6303;51.504;6.300;2022-07-06T14:33:32;2.30;;;1.85;;
12476;SDS011;6303;51.504;6.300;2022-07-06T14:35:59;2.28;;;2.08;;
12476;SDS011;6303;51.504;6.300;2022-07-06T14:38:26;2.35;;;1.73;;
12476;SDS011;6303;51.504;6.300;2022-07-06T14:40:53;2.70;;;1.90;;
12476;SDS011;6303;51.504;6.300;2022-07-06T14:43:20;1.80;;;1.70;;
12476;SDS011;6303;51.504;6.300;2022-07-06T14:45:48;1.80;;;1.70;;
12476;SDS011;6303;51.504;6.300;2022-07-06T14:48:16;2.65;;;1.92;;
12476;SDS011;6303;51.504;6.300;2022-07-06T14:50:43;3.08;;;1.98;;
12476;SDS011;6303;51.504;6.300;2022-07-06T14:53:11;2.05;;;1.63;;
12476;SDS011;6303;51.504;6.300;2022-07-06T14:55:38;2.58;;;1.70;;
12476;SDS011;6303;51.504;6.300;2022-07-06T14:58:05;3.13;;;1.75;;
12476;SDS011;6303;51.504;6.300;2022-07-06T15:00:32;1.88;;;1.70;;
12476;SDS011;6303;51.504;6.300;2022-07-06T15:02:59;1.90;;;1.75;;
12476;SDS011;6303;51.504;6.300;2022-07-06T15:05:28;2.72;;;1.70;;
12476;SDS011;6303;51.504;6.300;2022-07-06T15:07:55;1.90;;;1.80;;
12476;SDS011;6303;51.504;6.300;2022-07-06T15:10:22;1.80;;;1.70;;
12476;SDS011;6303;51.504;6.300;2022-07-06T15:12:49;1.85;;;1.70;;
12476;SDS011;6303;51.504;6.300;2022-07-06T15:15:16;3.05;;;1.83;;
12476;SDS011;6303;51.504;6.300;2022-07-06T15:17:44;3.13;;;1.83;;